Flight Track Log - Related Links

Times and Time Zones

All times are in EDT time to prevent confusion due to time zone crossing. See the CES2026 flight status page for this flight to view local times or setup timezone preferences in your user account.


Time Position Orientation Groundspeed Altitude Reporting Facility
EDT Latitude Longitude Course Direction KTS MPH feet Rate Location/Type
Sat 03:54:00 AM 23.6536 101.9092 32° Northeast  Level Estimated
Sat 03:55:00 AM 23.7298 101.9621 32° Northeast  Level Estimated
Sat 03:56:00 AM 23.8059 102.0151 32° Northeast  Level Estimated
Sat 03:57:00 AM 23.8820 102.0682 33° Northeast  Level Estimated
Sat 03:58:00 AM 23.9581 102.1213 33° Northeast  Level Estimated
Sat 03:59:00 AM 24.0342 102.1745 33° Northeast  Level Estimated
Sat 04:00:00 AM 24.1103 102.2278 33° Northeast  Level Estimated
Sat 04:01:00 AM 24.1863 102.2811 33° Northeast  Level Estimated
Sat 04:02:00 AM 24.2623 102.3344 33° Northeast  Level Estimated
Sat 04:03:00 AM 24.3383 102.3879 33° Northeast  Level Estimated
Sat 04:04:00 AM 24.4143 102.4414 33° Northeast  Level Estimated
Sat 04:05:00 AM 24.4903 102.4950 33° Northeast  Level Estimated
Sat 04:06:00 AM 24.5662 102.5486 33° Northeast  Level Estimated
Sat 04:07:00 AM 24.6422 102.6023 33° Northeast  Level Estimated
Sat 04:08:00 AM 24.7181 102.6561 33° Northeast  Level Estimated
Sat 04:09:00 AM 24.7940 102.7099 33° Northeast  Level Estimated
Sat 04:10:00 AM 24.8699 102.7638 33° Northeast  Level Estimated
Sat 04:11:00 AM 24.9457 102.8178 33° Northeast  Level Estimated
Sat 04:12:00 AM 25.0215 102.8718 33° Northeast  Level Estimated
Sat 04:13:00 AM 25.0973 102.9259 33° Northeast  Level Estimated
Sat 04:14:00 AM 25.1019 102.9292 33° Northeast  Level Estimated
Sat 04:15:00 AM 25.1019 102.9292 326° Northwest  Level Estimated
Sat 04:16:00 AM 25.1019 102.9292 326° Northwest  Level Estimated
Sat 04:17:00 AM 25.1019 102.9292 326° Northwest  Level Estimated
Sat 04:18:00 AM 25.1019 102.9292 326° Northwest  Level Estimated
Sat 04:19:00 AM 25.1019 102.9292 326° Northwest  Level Estimated
Sat 04:20:00 AM 25.1019 102.9292 326° Northwest  Level Estimated

Login

Don't have an account? Register now (free) for customized features, flight alerts, and more!